Time;durP1;ratioP1;P1;durP2;ratioP2;P2;SDS_P1;SDS_P2;PMS_P1;PMS_P2;Temp;Humidity;BMP_temperature;BMP_pressure;BME280_temperature;BME280_humidity;BME280_pressure;Samples;Min_cycle;Max_cycle;Signal;HPM_P1;HPM_P2
2021/08/26 00:07:54;;;;;;;15.15;12.00;;;15.90;99.90;;;;;;5095181;28;20040;-47
2021/08/26 00:10:23;;;;;;;14.60;11.80;;;15.90;99.90;;;;;;5077360;28;20063;-48
2021/08/26 00:12:49;;;;;;;12.60;11.30;;;16.00;99.90;;;;;;5095635;28;20097;-50
2021/08/26 00:15:14;;;;;;;14.45;12.65;;;15.90;99.90;;;;;;5095620;28;20028;-49
2021/08/26 00:17:40;;;;;;;15.93;13.65;;;15.90;99.90;;;;;;5095138;28;20028;-51
2021/08/26 00:20:06;;;;;;;16.02;13.30;;;15.80;99.90;;;;;;5095339;28;20549;-47
2021/08/26 00:22:32;;;;;;;16.08;12.82;;;15.80;99.90;;;;;;5096101;28;20030;-49
2021/08/26 00:24:58;;;;;;;15.63;13.73;;;15.80;99.90;;;;;;5095128;28;20024;-52
2021/08/26 00:27:24;;;;;;;14.65;13.07;;;15.80;99.90;;;;;;5094422;28;20027;-55
2021/08/26 00:29:50;;;;;;;14.90;13.07;;;15.80;99.90;;;;;;5095125;28;20578;-53
2021/08/26 00:32:16;;;;;;;15.07;13.20;;;15.90;99.90;;;;;;5097017;28;20059;-50
2021/08/26 00:34:41;;;;;;;14.65;13.23;;;15.90;99.90;;;;;;5096505;28;20051;-58
2021/08/26 00:37:07;;;;;;;16.13;13.85;;;15.80;99.90;;;;;;5094940;28;20050;-49
2021/08/26 00:39:33;;;;;;;18.20;13.57;;;15.80;99.90;;;;;;5095818;28;20028;-57
2021/08/26 00:41:58;;;;;;;15.43;12.88;;;15.80;99.90;;;;;;5095098;28;20031;-58
2021/08/26 00:44:24;;;;;;;12.88;10.93;;;15.90;99.90;;;;;;5077360;28;20103;-54
2021/08/26 00:46:50;;;;;;;12.02;9.23;;;15.90;99.90;;;;;;5095263;28;20491;-64
2021/08/26 00:49:16;;;;;;;11.13;10.13;;;15.90;99.90;;;;;;5094259;28;20075;-50
2021/08/26 00:51:43;;;;;;;11.63;10.52;;;16.00;99.90;;;;;;5110428;28;20074;-52
2021/08/26 00:54:09;;;;;;;11.65;10.45;;;16.00;99.90;;;;;;5094312;28;20396;-52
2021/08/26 00:56:35;;;;;;;9.70;8.60;;;16.00;99.90;;;;;;5094300;28;20032;-54
2021/08/26 00:59:02;;;;;;;9.55;7.50;;;15.90;99.90;;;;;;5094535;28;20552;-49
2021/08/26 01:01:46;;;;;;;8.60;7.15;;;15.80;99.90;;;;;;5094947;28;20016;-50
2021/08/26 01:04:31;;;;;;;10.05;6.85;;;15.70;99.90;;;;;;5093895;28;20030;-48
2021/08/26 01:07:00;;;;;;;7.45;6.07;;;15.70;99.90;;;;;;5093915;28;20101;-53
2021/08/26 01:09:35;;;;;;;7.00;5.55;;;15.60;99.90;;;;;;5094663;28;20024;-52
2021/08/26 01:12:01;;;;;;;;;;;15.50;99.90;;;;;;5093317;28;20472;-54
2021/08/26 01:14:27;;;;;;;6.88;5.60;;;15.60;99.90;;;;;;5094451;28;20026;-52
2021/08/26 01:16:53;;;;;;;5.55;4.72;;;15.50;99.90;;;;;;5091781;28;20062;-51
2021/08/26 01:19:18;;;;;;;4.80;4.30;;;15.60;99.90;;;;;;5093945;28;20021;-49
2021/08/26 01:21:44;;;;;;;5.05;3.70;;;15.60;99.90;;;;;;5093722;28;20423;-50
2021/08/26 01:24:15;;;;;;;4.18;3.70;;;15.50;99.90;;;;;;5093463;28;20123;-50
2021/08/26 01:26:45;;;;;;;10.00;3.70;;;15.60;99.90;;;;;;5094091;28;20065;-53
2021/08/26 01:29:13;;;;;;;4.07;3.47;;;15.50;99.90;;;;;;5094132;28;20024;-51
2021/08/26 01:31:40;;;;;;;4.35;3.55;;;15.70;99.90;;;;;;5094187;28;20457;-55
2021/08/26 01:34:06;;;;;;;4.70;3.80;;;15.60;99.90;;;;;;5094030;28;20031;-52
2021/08/26 01:36:33;;;;;;;5.38;3.25;;;15.70;99.90;;;;;;5094516;28;20024;-49
2021/08/26 01:39:08;;;;;;;3.88;3.25;;;15.80;99.90;;;;;;5093606;28;20484;-51
2021/08/26 01:41:52;;;;;;;3.72;3.22;;;15.70;99.90;;;;;;5091558;28;20032;-53
2021/08/26 01:44:29;;;;;;;4.75;3.17;;;15.70;99.90;;;;;;5093651;28;20085;-52
2021/08/26 01:46:56;;;;;;;4.38;3.80;;;15.70;99.90;;;;;;5073264;28;20044;-49
2021/08/26 01:49:23;;;;;;;3.88;3.10;;;15.60;99.90;;;;;;5074312;28;20116;-52
2021/08/26 01:51:48;;;;;;;5.00;3.67;;;15.50;99.90;;;;;;5103393;28;20089;-51
2021/08/26 01:54:14;;;;;;;5.95;3.30;;;15.60;99.90;;;;;;5094302;28;20028;-51
2021/08/26 01:56:39;;;;;;;5.05;3.35;;;15.60;99.90;;;;;;5074502;28;20115;-54
2021/08/26 01:59:05;;;;;;;4.93;3.20;;;15.50;99.90;;;;;;5093762;28;20375;-50
2021/08/26 02:01:31;;;;;;;5.00;3.60;;;15.50;99.90;;;;;;5093950;28;20035;-49
2021/08/26 02:03:57;;;;;;;5.53;3.60;;;15.60;99.90;;;;;;5093605;28;20031;-47
2021/08/26 02:06:23;;;;;;;5.65;3.53;;;15.50;99.90;;;;;;5093884;28;20046;-50
2021/08/26 02:08:48;;;;;;;5.25;3.45;;;15.60;99.90;;;;;;5092945;28;20073;-51
2021/08/26 02:11:14;;;;;;;5.43;3.70;;;15.60;99.90;;;;;;5093171;28;20073;-51
2021/08/26 02:13:40;;;;;;;5.68;3.72;;;15.50;99.90;;;;;;5093562;28;20032;-49
2021/08/26 02:16:06;;;;;;;8.02;4.00;;;15.40;99.90;;;;;;5093633;28;20045;-47
2021/08/26 02:18:32;;;;;;;7.90;4.28;;;15.40;99.90;;;;;;5094301;28;20020;-49
2021/08/26 02:20:57;;;;;;;8.23;4.18;;;15.40;99.90;;;;;;5094088;28;20068;-49
2021/08/26 02:23:23;;;;;;;10.57;4.20;;;15.50;99.90;;;;;;5093805;28;20055;-48
2021/08/26 02:25:49;;;;;;;9.05;4.60;;;15.50;99.90;;;;;;5092360;28;20074;-49
2021/08/26 02:28:14;;;;;;;12.80;5.47;;;15.40;99.90;;;;;;5074591;28;20068;-51
2021/08/26 02:30:40;;;;;;;9.13;4.60;;;15.40;99.90;;;;;;5074202;28;20036;-51
2021/08/26 02:33:06;;;;;;;10.35;4.45;;;15.40;99.90;;;;;;5092459;28;20024;-51
2021/08/26 02:35:31;;;;;;;10.20;5.35;;;15.40;99.90;;;;;;5092197;28;20036;-51
2021/08/26 02:37:57;;;;;;;12.20;5.18;;;15.40;99.90;;;;;;5092959;28;20032;-48
2021/08/26 02:40:22;;;;;;;8.00;4.50;;;15.40;99.90;;;;;;5093362;28;20368;-52
2021/08/26 02:42:48;;;;;;;6.60;5.05;;;15.30;99.90;;;;;;5074266;28;20028;-48
2021/08/26 02:45:14;;;;;;;7.63;5.03;;;15.30;99.90;;;;;;5093088;28;20036;-47
2021/08/26 02:47:40;;;;;;;8.68;5.25;;;15.40;99.90;;;;;;5093468;28;20388;-48
2021/08/26 02:50:06;;;;;;;9.00;5.63;;;15.30;99.90;;;;;;5093711;28;20066;-50
2021/08/26 02:52:32;;;;;;;10.70;6.72;;;15.40;99.90;;;;;;5093495;28;20063;-50
2021/08/26 02:54:57;;;;;;;8.32;5.53;;;15.40;99.90;;;;;;5093309;28;20479;-50
2021/08/26 02:57:23;;;;;;;8.30;5.35;;;15.40;99.90;;;;;;5092546;28;20032;-55
2021/08/26 02:59:48;;;;;;;6.90;5.13;;;15.50;99.90;;;;;;5093076;28;20187;-50
2021/08/26 03:02:14;;;;;;;8.60;5.63;;;15.60;99.90;;;;;;5093551;28;20036;-48
2021/08/26 03:04:39;;;;;;;8.48;5.65;;;15.60;99.90;;;;;;5093375;28;20046;-49
2021/08/26 03:07:05;;;;;;;11.38;6.07;;;15.60;99.90;;;;;;5074969;28;20480;-52
2021/08/26 03:09:31;;;;;;;7.32;5.80;;;15.40;99.90;;;;;;5094590;28;20036;-53
2021/08/26 03:11:56;;;;;;;6.55;4.90;;;15.30;99.90;;;;;;5093253;28;20127;-48
2021/08/26 03:14:22;;;;;;;9.48;5.70;;;15.30;99.90;;;;;;5093543;28;20503;-49
2021/08/26 03:16:47;;;;;;;13.77;5.75;;;15.30;99.90;;;;;;5092745;28;20032;-52
2021/08/26 03:19:13;;;;;;;10.40;5.22;;;15.20;99.90;;;;;;5058445;28;20059;-52
2021/08/26 03:21:38;;;;;;;12.88;5.18;;;15.30;99.90;;;;;;5093488;28;20094;-48
2021/08/26 03:24:05;;;;;;;18.25;6.45;;;15.20;99.90;;;;;;5093342;28;20044;-50
2021/08/26 03:26:31;;;;;;;13.65;6.57;;;15.20;99.90;;;;;;5074256;28;20032;-48
2021/08/26 03:28:57;;;;;;;15.20;6.07;;;15.20;99.90;;;;;;5093616;28;20016;-47
2021/08/26 03:31:23;;;;;;;14.77;7.63;;;15.00;99.90;;;;;;5093046;28;20039;-50
2021/08/26 03:33:48;;;;;;;13.90;5.68;;;15.00;99.90;;;;;;5092880;28;20036;-50
2021/08/26 03:36:14;;;;;;;13.52;6.47;;;15.10;99.90;;;;;;5092784;28;20042;-53
2021/08/26 03:38:41;;;;;;;14.35;5.68;;;15.00;99.90;;;;;;5093274;28;20217;-48
2021/08/26 03:41:07;;;;;;;14.77;6.38;;;15.10;99.90;;;;;;5091966;28;20039;-49
2021/08/26 03:43:32;;;;;;;12.90;6.32;;;15.10;99.90;;;;;;5092717;28;20032;-51
2021/08/26 03:45:58;;;;;;;18.48;6.50;;;15.00;99.90;;;;;;5092373;28;20585;-48
2021/08/26 03:48:24;;;;;;;12.30;5.55;;;15.00;99.90;;;;;;5092269;28;20036;-48
2021/08/26 03:50:49;;;;;;;12.90;5.95;;;15.00;99.90;;;;;;5092432;28;20032;-48
2021/08/26 03:53:15;;;;;;;13.40;5.70;;;15.00;99.90;;;;;;5091862;28;20437;-52
2021/08/26 03:55:40;;;;;;;17.40;6.88;;;15.00;99.90;;;;;;5091530;28;20028;-55
2021/08/26 03:58:06;;;;;;;12.10;6.45;;;15.00;99.90;;;;;;5092242;28;20064;-54
2021/08/26 04:00:32;;;;;;;14.27;6.72;;;15.00;99.90;;;;;;5092879;28;20028;-51
2021/08/26 04:02:57;;;;;;;10.68;6.28;;;15.10;99.90;;;;;;5074431;28;20031;-50
2021/08/26 04:05:23;;;;;;;10.55;5.35;;;15.10;99.90;;;;;;5092769;28;20039;-51
2021/08/26 04:07:48;;;;;;;15.25;6.75;;;15.00;99.90;;;;;;5094033;28;20114;-49
2021/08/26 04:10:14;;;;;;;13.57;6.32;;;15.00;99.90;;;;;;5096176;28;20024;-48
2021/08/26 04:12:41;;;;;;;18.45;6.18;;;14.90;99.90;;;;;;5095457;28;20465;-49
2021/08/26 04:15:07;;;;;;;22.90;6.03;;;14.90;99.90;;;;;;5096268;28;20043;-51
2021/08/26 04:17:33;;;;;;;14.63;6.85;;;14.90;99.90;;;;;;5096793;28;20077;-47
2021/08/26 04:19:58;;;;;;;14.90;6.53;;;15.00;99.90;;;;;;5095972;28;20028;-48
2021/08/26 04:22:24;;;;;;;23.60;7.45;;;15.10;99.90;;;;;;5096203;28;20071;-49
2021/08/26 04:24:49;;;;;;;11.80;5.63;;;15.00;99.90;;;;;;5095526;28;20449;-50
2021/08/26 04:27:15;;;;;;;12.55;6.65;;;15.10;99.90;;;;;;5095588;28;20035;-53
2021/08/26 04:29:41;;;;;;;16.00;6.40;;;15.10;99.90;;;;;;5097364;28;20047;-54
2021/08/26 04:32:06;;;;;;;15.25;6.53;;;15.00;99.90;;;;;;5097761;28;20081;-48
2021/08/26 04:34:32;;;;;;;14.40;6.60;;;14.90;99.90;;;;;;5079708;28;20035;-49
2021/08/26 04:36:57;;;;;;;16.05;6.20;;;15.00;99.90;;;;;;5110469;28;20073;-55
2021/08/26 04:39:23;;;;;;;14.43;6.45;;;15.00;99.90;;;;;;5105083;28;20032;-50
2021/08/26 04:41:48;;;;;;;15.75;5.90;;;15.00;99.90;;;;;;5105617;28;20517;-49
2021/08/26 04:44:14;;;;;;;16.10;6.43;;;15.00;99.90;;;;;;5100862;28;20040;-49
2021/08/26 04:46:39;;;;;;;17.40;6.20;;;15.00;99.90;;;;;;5094738;28;20051;-53
2021/08/26 04:49:05;;;;;;;22.38;8.00;;;15.10;99.90;;;;;;5095748;28;20040;-51
2021/08/26 04:51:31;;;;;;;17.10;6.95;;;15.00;99.90;;;;;;5095891;28;20115;-51
2021/08/26 04:53:56;;;;;;;16.95;7.07;;;15.00;99.90;;;;;;5095436;28;20032;-54
2021/08/26 04:56:22;;;;;;;19.58;6.93;;;14.80;99.90;;;;;;5095171;28;20028;-52
2021/08/26 04:58:47;;;;;;;16.23;7.63;;;14.80;99.90;;;;;;5094968;28;20024;-54
2021/08/26 05:01:13;;;;;;;20.67;7.50;;;14.90;99.90;;;;;;5076800;28;20040;-48
2021/08/26 05:03:38;;;;;;;20.60;7.05;;;14.90;99.90;;;;;;5095302;28;20032;-53
2021/08/26 05:06:05;;;;;;;20.50;6.82;;;14.90;99.90;;;;;;5095542;28;20081;-47
2021/08/26 05:08:31;;;;;;;19.83;7.47;;;14.90;99.90;;;;;;5094747;28;20373;-53
2021/08/26 05:10:57;;;;;;;15.88;7.43;;;14.90;99.90;;;;;;5095374;28;20053;-52
2021/08/26 05:13:22;;;;;;;14.45;6.75;;;14.80;99.90;;;;;;5094472;28;20032;-51
2021/08/26 05:15:48;;;;;;;20.33;8.50;;;14.80;99.90;;;;;;5094363;28;20492;-52
2021/08/26 05:18:14;;;;;;;18.17;8.20;;;14.80;99.90;;;;;;5076807;28;20055;-49
2021/08/26 05:20:39;;;;;;;22.40;11.25;;;14.80;99.90;;;;;;5095149;28;20149;-50
2021/08/26 05:23:05;;;;;;;18.15;7.40;;;14.80;99.90;;;;;;5095007;28;20050;-48
2021/08/26 05:25:31;;;;;;;20.45;8.73;;;14.80;99.90;;;;;;5094647;28;20446;-52
2021/08/26 05:27:57;;;;;;;18.10;7.93;;;14.90;99.90;;;;;;5093858;28;20118;-53
2021/08/26 05:30:22;;;;;;;21.67;9.43;;;15.00;99.90;;;;;;5095100;28;20412;-48
2021/08/26 05:32:48;;;;;;;18.45;8.23;;;14.70;99.90;;;;;;5094628;28;20078;-48
2021/08/26 05:35:14;;;;;;;21.27;9.43;;;14.80;99.90;;;;;;5094712;28;20388;-50
2021/08/26 05:37:40;;;;;;;20.30;10.32;;;14.90;99.90;;;;;;5094564;28;20119;-53
2021/08/26 05:40:06;;;;;;;23.15;9.43;;;14.80;99.90;;;;;;5094904;28;20032;-51
2021/08/26 05:42:32;;;;;;;19.70;8.75;;;14.80;99.90;;;;;;5076918;28;20055;-48
2021/08/26 05:44:58;;;;;;;18.23;8.93;;;14.90;99.90;;;;;;5094883;28;20030;-50
2021/08/26 05:47:24;;;;;;;21.10;8.90;;;14.90;99.90;;;;;;5094153;28;20491;-52
2021/08/26 05:49:49;;;;;;;18.30;9.00;;;15.10;99.90;;;;;;5096315;28;20036;-55
2021/08/26 05:52:15;;;;;;;26.08;9.02;;;15.10;99.90;;;;;;5095856;28;20034;-52
2021/08/26 05:54:41;;;;;;;23.45;8.80;;;15.00;99.90;;;;;;5095035;28;20055;-46
2021/08/26 05:57:06;;;;;;;15.95;8.15;;;14.90;99.90;;;;;;5094449;28;20024;-48
2021/08/26 05:59:32;;;;;;;25.52;8.68;;;15.00;99.90;;;;;;5094340;28;20028;-51
2021/08/26 06:02:00;;;;;;;21.90;8.88;;;15.10;99.90;;;;;;5093964;28;20028;-51
2021/08/26 06:04:25;;;;;;;21.38;8.27;;;15.00;99.90;;;;;;5094503;28;20119;-52
2021/08/26 06:06:51;;;;;;;21.35;8.57;;;15.00;99.90;;;;;;5094090;28;20307;-50
2021/08/26 06:09:16;;;;;;;24.75;8.43;;;15.00;99.90;;;;;;5076354;28;20039;-50
2021/08/26 06:11:45;;;;;;;19.33;8.18;;;15.10;99.90;;;;;;5094173;28;20111;-52
2021/08/26 06:14:11;;;;;;;18.10;8.90;;;15.10;99.90;;;;;;5094338;28;20040;-49
2021/08/26 06:16:37;;;;;;;19.63;8.10;;;15.10;99.90;;;;;;5094212;28;20040;-52
2021/08/26 06:19:03;;;;;;;13.75;8.02;;;15.20;99.90;;;;;;5075410;28;20039;-48
2021/08/26 06:21:29;;;;;;;22.55;8.32;;;15.30;99.90;;;;;;5094226;28;20028;-53
2021/08/26 06:23:54;;;;;;;15.85;9.07;;;15.40;99.90;;;;;;5075664;28;20032;-51
2021/08/26 06:26:20;;;;;;;15.85;8.30;;;15.30;99.90;;;;;;5093785;28;20043;-47
2021/08/26 06:28:46;;;;;;;21.85;8.23;;;15.30;99.90;;;;;;5093843;28;20036;-48
2021/08/26 06:31:13;;;;;;;22.40;7.72;;;15.40;99.90;;;;;;5092556;28;20059;-50
2021/08/26 06:33:40;;;;;;;18.23;7.63;;;15.40;99.90;;;;;;5075130;28;20047;-50
2021/08/26 06:36:06;;;;;;;19.05;8.80;;;15.50;99.90;;;;;;5093731;28;20016;-49
2021/08/26 06:38:31;;;;;;;22.52;7.95;;;15.60;99.90;;;;;;5093206;28;20097;-48
2021/08/26 06:40:57;;;;;;;20.02;7.93;;;15.50;99.90;;;;;;5093554;28;20047;-51
2021/08/26 06:43:23;;;;;;;16.30;7.45;;;15.60;99.50;;;;;;5093111;28;20035;-51
2021/08/26 06:45:48;;;;;;;18.35;7.43;;;15.50;99.90;;;;;;5092409;28;20020;-52
2021/08/26 06:48:14;;;;;;;22.00;7.53;;;15.60;99.60;;;;;;5092821;28;20032;-48
2021/08/26 06:50:40;;;;;;;19.30;8.13;;;15.60;99.60;;;;;;5108607;28;20620;-50
2021/08/26 06:53:05;;;;;;;18.65;7.07;;;15.60;99.50;;;;;;5093083;28;20044;-52
2021/08/26 06:55:31;;;;;;;21.15;7.65;;;15.70;99.30;;;;;;5075000;28;20028;-53
2021/08/26 06:57:57;;;;;;;22.92;7.88;;;15.80;98.80;;;;;;5093343;28;20462;-50
2021/08/26 07:00:22;;;;;;;17.52;7.05;;;15.90;98.60;;;;;;5075425;28;20036;-49
2021/08/26 07:02:48;;;;;;;19.02;7.57;;;15.80;98.80;;;;;;5074936;28;20044;-52
2021/08/26 07:05:14;;;;;;;17.45;6.65;;;15.80;98.60;;;;;;5093841;28;20062;-51
2021/08/26 07:07:39;;;;;;;25.30;8.20;;;15.70;97.90;;;;;;5092587;28;20480;-50
2021/08/26 07:10:05;;;;;;;20.38;7.93;;;15.70;98.20;;;;;;5094126;28;20069;-48
2021/08/26 07:12:31;;;;;;;14.55;7.20;;;15.50;98.60;;;;;;5094055;28;20024;-52
2021/08/26 07:14:59;;;;;;;19.15;7.25;;;15.60;98.20;;;;;;5092470;28;20027;-51
2021/08/26 07:17:25;;;;;;;18.27;6.85;;;15.70;97.90;;;;;;5093003;28;20024;-50
2021/08/26 07:19:51;;;;;;;16.70;6.60;;;15.80;97.50;;;;;;5092316;28;20029;-52
2021/08/26 07:22:17;;;;;;;18.95;7.05;;;15.70;97.40;;;;;;5093254;28;20114;-51
2021/08/26 07:24:43;;;;;;;13.82;6.53;;;15.80;97.00;;;;;;5092220;28;20495;-49
2021/08/26 07:27:10;;;;;;;11.43;6.28;;;15.90;96.40;;;;;;5093054;28;20040;-53
2021/08/26 07:29:36;;;;;;;16.20;7.00;;;15.90;96.80;;;;;;5093214;28;20028;-51
2021/08/26 07:32:01;;;;;;;13.07;6.28;;;15.90;96.60;;;;;;5093410;28;20513;-49
2021/08/26 07:34:27;;;;;;;13.60;6.93;;;16.00;95.90;;;;;;5092844;28;20044;-50
2021/08/26 07:36:53;;;;;;;17.08;7.95;;;16.00;96.30;;;;;;5093313;28;20109;-49
2021/08/26 07:39:18;;;;;;;16.67;7.10;;;16.10;96.70;;;;;;5092680;28;20020;-54
2021/08/26 07:41:44;;;;;;;26.35;7.75;;;16.30;96.70;;;;;;5094530;28;20032;-52
2021/08/26 07:44:09;;;;;;;18.77;7.63;;;16.60;96.40;;;;;;5097078;28;20097;-54
2021/08/26 07:46:35;;;;;;;18.25;7.70;;;16.30;96.80;;;;;;5075211;28;20039;-50
2021/08/26 07:49:00;;;;;;;15.63;7.13;;;16.30;96.70;;;;;;5076898;28;20195;-52
2021/08/26 07:51:26;;;;;;;18.70;7.85;;;16.40;96.70;;;;;;5075323;28;20032;-54
2021/08/26 07:53:52;;;;;;;18.77;7.65;;;16.60;96.70;;;;;;5076359;28;20480;-50
2021/08/26 07:56:18;;;;;;;14.13;7.38;;;16.60;96.60;;;;;;5076430;28;20028;-50
2021/08/26 07:58:43;;;;;;;20.58;8.20;;;16.60;96.10;;;;;;5075972;28;20029;-50
2021/08/26 08:01:09;;;;;;;17.42;8.07;;;16.60;95.70;;;;;;5076640;28;20040;-53
2021/08/26 08:03:35;;;;;;;18.33;9.05;;;16.80;96.20;;;;;;5074708;28;20558;-54
2021/08/26 08:06:01;;;;;;;15.95;8.05;;;16.80;95.90;;;;;;5076382;28;20039;-54
2021/08/26 08:08:27;;;;;;;18.85;9.32;;;16.80;96.10;;;;;;5076813;28;20029;-50
2021/08/26 08:10:53;;;;;;;19.73;8.50;;;16.70;96.50;;;;;;5092089;28;20040;-54
2021/08/26 08:13:19;;;;;;;18.15;9.05;;;16.70;96.20;;;;;;5091733;28;20036;-52
2021/08/26 08:15:56;;;;;;;20.55;9.43;;;16.60;96.40;;;;;;5075998;28;20412;-50
2021/08/26 08:18:21;;;;;;;14.48;9.13;;;16.60;96.50;;;;;;5076924;28;20056;-52
2021/08/26 08:20:47;;;;;;;16.95;8.45;;;16.70;95.80;;;;;;5091810;28;20025;-55
2021/08/26 08:23:13;;;;;;;15.25;8.05;;;16.60;95.50;;;;;;5096288;28;20047;-49
2021/08/26 08:25:38;;;;;;;16.33;8.95;;;16.50;96.20;;;;;;5096223;28;20024;-54
2021/08/26 08:28:17;;;;;;;15.35;8.15;;;16.60;95.70;;;;;;5096462;28;20051;-49
2021/08/26 08:30:44;;;;;;;22.88;8.50;;;16.70;94.80;;;;;;5098301;28;20534;-55
2021/08/26 08:33:10;;;;;;;17.75;8.73;;;16.90;95.60;;;;;;5096424;28;20064;-51
2021/08/26 08:35:35;;;;;;;17.20;9.15;;;16.90;95.20;;;;;;5095643;28;20025;-54
2021/08/26 08:38:02;;;;;;;16.65;8.65;;;16.80;95.30;;;;;;5096243;28;20042;-48
2021/08/26 08:40:28;;;;;;;15.15;8.85;;;16.70;95.50;;;;;;5095752;28;20164;-52
2021/08/26 08:42:54;;;;;;;14.38;8.45;;;16.70;95.30;;;;;;5096011;28;20548;-53
2021/08/26 08:45:19;;;;;;;18.55;8.18;;;16.90;95.10;;;;;;5095846;28;20115;-51
2021/08/26 08:47:47;;;;;;;12.95;7.22;;;17.10;94.50;;;;;;5095751;28;20032;-50
2021/08/26 08:50:14;;;;;;;18.95;8.27;;;17.30;93.80;;;;;;5095801;28;20040;-51
2021/08/26 08:52:40;;;;;;;15.90;8.40;;;17.30;93.80;;;;;;5095329;28;20757;-48
2021/08/26 08:55:08;;;;;;;23.10;9.25;;;17.40;93.60;;;;;;5096165;28;20028;-52
2021/08/26 08:57:36;;;;;;;20.27;8.20;;;17.30;93.90;;;;;;5096040;28;20533;-50
2021/08/26 09:00:07;;;;;;;14.95;8.45;;;17.10;94.60;;;;;;5096007;28;20023;-54
2021/08/26 09:02:32;;;;;;;18.13;7.43;;;17.30;94.40;;;;;;5095283;28;20123;-54
2021/08/26 09:05:00;;;;;;;16.98;8.38;;;17.20;93.50;;;;;;5095460;28;20055;-53
2021/08/26 09:07:27;;;;;;;17.00;8.18;;;17.40;93.00;;;;;;5095644;28;20109;-50
2021/08/26 09:09:53;;;;;;;13.55;7.57;;;17.50;93.10;;;;;;5095621;28;20032;-49
2021/08/26 09:12:38;;;;;;;16.50;8.18;;;17.50;92.50;;;;;;5094693;28;20029;-50
2021/08/26 09:15:12;;;;;;;14.27;8.10;;;17.50;92.90;;;;;;5095151;28;20024;-48
2021/08/26 09:17:39;;;;;;;17.05;8.20;;;17.60;92.80;;;;;;5095153;28;20463;-50
2021/08/26 09:20:10;;;;;;;15.40;7.72;;;17.70;92.90;;;;;;5094959;28;20039;-55
2021/08/26 09:22:37;;;;;;;14.32;8.75;;;17.90;92.90;;;;;;5094312;28;20024;-54
2021/08/26 09:25:04;;;;;;;16.48;8.45;;;17.90;92.80;;;;;;5095516;28;20032;-53
2021/08/26 09:27:33;;;;;;;16.00;7.90;;;18.10;92.50;;;;;;5095580;28;20036;-49
2021/08/26 09:30:10;;;;;;;13.18;8.25;;;18.10;92.30;;;;;;5095115;28;20115;-50
2021/08/26 09:32:47;;;;;;;17.42;9.20;;;17.80;92.70;;;;;;5094711;28;20101;-47
2021/08/26 09:35:17;;;;;;;14.65;8.52;;;17.70;93.10;;;;;;5094920;28;20031;-51
2021/08/26 09:37:44;;;;;;;16.58;9.48;;;17.60;93.40;;;;;;5095284;28;20032;-53
2021/08/26 09:40:12;;;;;;;16.70;9.32;;;17.50;93.40;;;;;;5095150;28;20111;-50
2021/08/26 09:42:38;;;;;;;12.93;8.50;;;17.50;93.50;;;;;;5094477;28;20476;-48
2021/08/26 09:45:23;;;;;;;14.63;8.30;;;17.50;93.30;;;;;;5094482;28;20485;-49
2021/08/26 09:48:04;;;;;;;19.23;9.35;;;17.50;93.20;;;;;;5094267;28;20047;-49
2021/08/26 09:50:38;;;;;;;13.73;8.48;;;17.50;93.50;;;;;;5094598;28;20043;-51
2021/08/26 09:53:05;;;;;;;17.08;9.35;;;17.60;93.80;;;;;;5094878;28;20518;-53
2021/08/26 09:56:02;;;;;;;12.18;9.20;;;17.90;93.10;;;;;;5094560;28;20035;-51
2021/08/26 09:58:35;;;;;;;17.23;9.25;;;18.10;92.60;;;;;;5078048;28;20035;-50
2021/08/26 10:01:18;;;;;;;15.45;9.05;;;18.00;92.20;;;;;;5077787;28;20035;-48
2021/08/26 10:03:44;;;;;;;16.25;8.70;;;17.80;92.10;;;;;;5094714;28;20085;-53
2021/08/26 10:06:11;;;;;;;14.02;8.70;;;17.80;92.50;;;;;;5094524;28;20036;-48
2021/08/26 10:08:40;;;;;;;16.65;9.57;;;17.80;92.60;;;;;;5095500;28;20038;-49
2021/08/26 10:11:08;;;;;;;16.63;8.90;;;17.70;92.70;;;;;;5095101;28;20404;-50
2021/08/26 10:13:35;;;;;;;12.00;7.22;;;17.70;92.00;;;;;;5094540;28;20020;-53
2021/08/26 10:16:00;;;;;;;15.18;8.38;;;17.50;91.90;;;;;;5094308;28;20040;-53
2021/08/26 10:18:28;;;;;;;18.58;8.55;;;17.50;92.60;;;;;;5095259;28;20059;-52
2021/08/26 10:20:55;;;;;;;13.32;8.27;;;17.50;92.70;;;;;;5076986;28;20106;-53
2021/08/26 10:23:22;;;;;;;16.38;8.07;;;17.50;93.10;;;;;;5094357;28;20060;-52
2021/08/26 10:25:49;;;;;;;17.92;9.32;;;17.40;93.50;;;;;;5075067;28;20518;-50
2021/08/26 10:28:16;;;;;;;18.63;9.32;;;17.30;93.60;;;;;;5092654;28;20047;-49
2021/08/26 10:30:43;;;;;;;16.40;9.35;;;17.20;94.10;;;;;;5074530;28;20056;-52
2021/08/26 10:33:28;;;;;;;18.10;9.95;;;17.20;94.50;;;;;;5092394;28;20024;-51
2021/08/26 10:35:58;;;;;;;19.73;9.20;;;17.10;95.20;;;;;;5092301;28;20055;-59
2021/08/26 10:38:27;;;;;;;18.08;8.95;;;16.80;94.90;;;;;;5093415;28;20031;-55
2021/08/26 10:40:53;;;;;;;16.77;9.13;;;16.80;95.00;;;;;;5093400;28;20028;-59
2021/08/26 10:43:40;;;;;;;18.70;10.38;;;16.80;96.10;;;;;;5074701;28;20043;-55
2021/08/26 10:46:09;;;;;;;19.00;11.05;;;17.10;96.00;;;;;;5092066;28;20059;-53
2021/08/26 10:48:36;;;;;;;18.85;10.25;;;17.30;96.30;;;;;;5093429;28;20078;-49
2021/08/26 10:51:09;;;;;;;15.32;10.55;;;17.50;95.60;;;;;;5092936;28;20028;-53
2021/08/26 10:53:37;;;;;;;15.10;10.27;;;17.60;95.40;;;;;;5090124;28;20031;-52
2021/08/26 10:56:29;;;;;;;13.25;8.90;;;17.40;95.40;;;;;;5091516;28;20116;-56
2021/08/26 10:58:59;;;;;;;13.23;7.90;;;17.30;94.60;;;;;;5091645;28;20024;-49
2021/08/26 11:01:28;;;;;;;14.93;8.50;;;17.30;94.40;;;;;;5093753;28;20032;-49
2021/08/26 11:03:59;;;;;;;13.43;8.45;;;17.10;94.90;;;;;;5075729;28;20107;-51
2021/08/26 11:06:27;;;;;;;14.05;8.05;;;17.00;95.70;;;;;;5093645;28;20529;-50
2021/08/26 11:09:19;;;;;;;17.52;7.75;;;17.00;96.00;;;;;;5093549;28;20028;-51
2021/08/26 11:11:47;;;;;;;12.68;7.70;;;17.30;94.20;;;;;;5093267;28;20060;-48
2021/08/26 11:14:13;;;;;;;14.77;7.20;;;17.40;94.60;;;;;;5092957;28;20383;-51
2021/08/26 11:16:40;;;;;;;15.52;7.22;;;17.70;93.80;;;;;;5074710;28;20027;-47
2021/08/26 11:19:05;;;;;;;13.13;7.20;;;17.70;93.50;;;;;;5097109;28;20058;-55
2021/08/26 11:24:26;;;;;;;10.27;6.40;;;18.10;92.90;;;;;;5097274;28;20027;-49
2021/08/26 11:26:53;;;;;;;10.15;6.43;;;18.30;92.90;;;;;;5094546;28;20020;-53
2021/08/26 11:29:21;;;;;;;9.88;7.15;;;18.50;92.90;;;;;;5096951;28;20043;-50
2021/08/26 11:31:52;;;;;;;9.80;6.20;;;18.60;92.40;;;;;;5096507;28;20399;-51
2021/08/26 11:34:25;;;;;;;9.35;4.95;;;18.60;91.50;;;;;;5097045;28;20081;-48
2021/08/26 11:37:05;;;;;;;8.05;4.50;;;18.60;89.80;;;;;;5097191;28;20047;-51
2021/08/26 11:39:35;;;;;;;7.15;3.70;;;18.60;90.00;;;;;;5078943;28;20473;-52
2021/08/26 11:42:05;;;;;;;5.97;3.55;;;18.50;87.80;;;;;;5079549;28;20035;-50
2021/08/26 11:44:31;;;;;;;5.40;3.83;;;18.60;88.10;;;;;;5096967;28;20119;-50
2021/08/26 11:46:59;;;;;;;7.70;4.40;;;18.60;90.00;;;;;;5078447;28;20063;-49
2021/08/26 11:49:38;;;;;;;13.10;6.95;;;18.70;89.50;;;;;;5097129;28;20013;-54
2021/08/26 11:52:10;;;;;;;12.18;7.07;;;18.70;91.30;;;;;;5095674;28;20653;-50
2021/08/26 11:54:47;;;;;;;11.85;7.72;;;18.70;92.40;;;;;;5079399;28;20028;-49
2021/08/26 11:57:14;;;;;;;13.25;7.40;;;18.70;92.90;;;;;;5096264;28;20551;-52
2021/08/26 11:59:42;;;;;;;12.85;6.72;;;18.80;92.20;;;;;;5096710;28;20048;-50
2021/08/26 12:02:24;;;;;;;13.57;6.13;;;19.20;91.60;;;;;;5094624;28;20569;-50
2021/08/26 12:04:58;;;;;;;12.95;6.47;;;19.10;90.40;;;;;;5096358;28;20487;-48
2021/08/26 12:07:32;;;;;;;8.63;5.97;;;19.00;90.60;;;;;;5095865;28;20036;-53
2021/08/26 12:10:08;;;;;;;7.80;5.28;;;18.90;89.60;;;;;;5095559;28;20028;-50
2021/08/26 12:12:34;;;;;;;8.40;4.95;;;18.80;90.30;;;;;;5095113;28;20024;-53
2021/08/26 12:15:00;;;;;;;10.85;4.15;;;18.90;88.20;;;;;;5095238;28;20521;-50
2021/08/26 12:17:26;;;;;;;8.93;4.40;;;18.70;88.00;;;;;;5095188;28;20027;-54
2021/08/26 12:19:55;;;;;;;7.38;4.25;;;18.70;86.10;;;;;;5094246;28;20446;-60
2021/08/26 12:22:24;;;;;;;7.70;4.32;;;18.40;88.00;;;;;;5095081;28;20134;-56
2021/08/26 12:24:58;;;;;;;7.88;4.95;;;18.40;88.50;;;;;;5095110;28;20058;-60
2021/08/26 12:27:24;;;;;;;;;;;18.40;89.20;;;;;;5094915;28;20036;-57
2021/08/26 12:29:51;;;;;;;9.70;4.85;;;18.50;88.90;;;;;;5095253;28;19958;-55
2021/08/26 12:32:25;;;;;;;7.63;5.18;;;18.60;89.30;;;;;;5095856;28;20088;-58
2021/08/26 12:34:51;;;;;;;8.98;4.45;;;18.60;89.30;;;;;;5095824;28;20039;-57
2021/08/26 12:37:16;;;;;;;9.98;5.10;;;18.50;89.10;;;;;;5077703;28;20036;-54
2021/08/26 12:39:42;;;;;;;10.55;5.05;;;18.50;89.70;;;;;;5095756;28;20033;-55
2021/08/26 12:42:16;;;;;;;6.75;4.28;;;18.70;88.40;;;;;;5095450;28;20084;-53
2021/08/26 12:44:45;;;;;;;11.00;4.65;;;19.10;86.70;;;;;;5093005;28;20169;-54
2021/08/26 12:47:12;;;;;;;8.77;3.83;;;19.20;86.70;;;;;;5111836;28;20071;-53
2021/08/26 12:49:45;;;;;;;8.68;3.88;;;19.30;86.00;;;;;;5095177;28;20036;-54